Time;durP1;ratioP1;P1;durP2;ratioP2;P2;SDS_P1;SDS_P2;PMS_P1;PMS_P2;Temp;Humidity;BMP_temperature;BMP_pressure;BME280_temperature;BME280_humidity;BME280_pressure;Samples;Min_cycle;Max_cycle;Signal;HPM_P1;HPM_P2
2021/08/16 00:02:22;;;;;;;7.53;6.25;;;21.30;86.50;;;;;;5077838;28;20032;-55
2021/08/16 00:04:48;;;;;;;6.47;5.85;;;21.30;87.20;;;;;;5084674;28;20123;-56
2021/08/16 00:07:13;;;;;;;11.80;7.57;;;21.30;87.30;;;;;;5082365;28;20492;-55
2021/08/16 00:09:39;;;;;;;11.13;9.00;;;21.20;87.00;;;;;;5085955;28;20064;-57
2021/08/16 00:12:05;;;;;;;12.38;9.80;;;21.20;87.00;;;;;;5083802;28;20036;-53
2021/08/16 00:14:31;;;;;;;13.82;10.38;;;21.10;87.10;;;;;;5082812;28;20024;-54
2021/08/16 00:17:06;;;;;;;11.18;9.77;;;21.10;87.40;;;;;;5063868;28;20472;-55
2021/08/16 00:19:31;;;;;;;10.52;8.77;;;21.10;88.00;;;;;;5052208;28;20415;-56
2021/08/16 00:21:57;;;;;;;10.07;8.07;;;21.00;88.80;;;;;;5084762;28;20025;-58
2021/08/16 00:24:23;;;;;;;10.23;6.85;;;21.00;89.10;;;;;;5082149;28;20036;-55
2021/08/16 00:27:31;;;;;;;11.13;6.45;;;20.90;89.00;;;;;;5079988;28;20458;-62
2021/08/16 00:29:56;;;;;;;8.45;5.57;;;20.80;88.90;;;;;;5084424;28;20024;-57
2021/08/16 00:32:22;;;;;;;6.95;5.45;;;20.70;86.80;;;;;;5084130;28;20035;-56
2021/08/16 00:34:47;;;;;;;8.00;5.80;;;20.60;87.40;;;;;;5082443;28;20064;-55
2021/08/16 00:37:13;;;;;;;8.70;5.28;;;20.60;87.70;;;;;;5082668;28;20102;-57
2021/08/16 00:39:38;;;;;;;11.02;5.60;;;20.50;88.00;;;;;;5084091;28;20373;-56
2021/08/16 00:42:09;;;;;;;10.57;6.00;;;20.60;87.80;;;;;;5081842;28;20036;-55
2021/08/16 00:44:34;;;;;;;12.02;5.55;;;20.60;88.20;;;;;;5084738;28;20028;-51
2021/08/16 00:47:01;;;;;;;6.57;5.85;;;20.60;88.40;;;;;;5080975;28;20185;-57
2021/08/16 00:49:26;;;;;;;8.90;7.40;;;20.60;89.00;;;;;;5083835;28;20032;-53
2021/08/16 00:51:52;;;;;;;8.98;8.07;;;20.60;89.40;;;;;;5081973;28;20082;-54
2021/08/16 00:54:18;;;;;;;8.38;7.25;;;20.60;89.80;;;;;;5082504;28;20020;-57
2021/08/16 00:56:43;;;;;;;7.93;6.90;;;20.60;89.70;;;;;;5083204;28;20047;-56
2021/08/16 00:59:11;;;;;;;9.88;6.28;;;20.60;89.60;;;;;;5081512;28;20025;-56
2021/08/16 01:01:37;;;;;;;8.70;5.97;;;20.50;89.50;;;;;;5083242;28;20131;-55
2021/08/16 01:04:02;;;;;;;12.90;7.78;;;20.60;88.60;;;;;;5083214;28;20536;-53
2021/08/16 01:06:28;;;;;;;8.93;6.60;;;20.60;88.50;;;;;;5080945;28;20032;-54
2021/08/16 01:08:54;;;;;;;7.30;5.70;;;20.60;88.80;;;;;;5081226;28;20024;-55
2021/08/16 01:11:20;;;;;;;8.77;5.30;;;20.70;88.20;;;;;;5084427;28;20028;-54
2021/08/16 01:13:47;;;;;;;9.38;5.28;;;20.60;88.00;;;;;;5081438;28;20044;-54
2021/08/16 01:16:15;;;;;;;7.13;4.80;;;20.60;87.00;;;;;;5081529;28;20029;-55
2021/08/16 01:18:40;;;;;;;13.88;4.50;;;20.60;86.70;;;;;;5081628;28;20119;-52
2021/08/16 01:21:08;;;;;;;8.27;5.25;;;20.60;87.20;;;;;;5083188;28;20091;-53
2021/08/16 01:23:34;;;;;;;7.85;6.15;;;20.60;87.30;;;;;;5081849;28;20039;-56
2021/08/16 01:26:01;;;;;;;9.82;5.75;;;20.50;87.90;;;;;;5081217;28;20032;-58
2021/08/16 01:28:27;;;;;;;9.52;4.47;;;20.50;88.20;;;;;;5085147;28;20406;-54
2021/08/16 01:30:59;;;;;;;8.30;4.43;;;20.50;86.70;;;;;;5081087;28;20028;-55
2021/08/16 01:33:26;;;;;;;8.95;4.50;;;20.50;85.80;;;;;;5081874;28;20053;-51
2021/08/16 01:35:51;;;;;;;8.35;4.45;;;20.60;85.90;;;;;;5082786;28;20040;-57
2021/08/16 01:38:25;;;;;;;6.50;4.60;;;20.50;85.80;;;;;;5083395;28;20465;-56
2021/08/16 01:40:50;;;;;;;12.88;4.75;;;20.50;86.50;;;;;;5083374;28;20036;-56
2021/08/16 01:43:16;;;;;;;11.93;4.28;;;20.50;86.30;;;;;;5084048;28;20034;-57
2021/08/16 01:45:42;;;;;;;10.00;4.43;;;20.50;85.80;;;;;;5081224;28;20032;-57
2021/08/16 01:48:07;;;;;;;6.15;4.30;;;20.50;84.90;;;;;;5080880;28;20471;-57
2021/08/16 01:50:33;;;;;;;10.00;4.63;;;20.50;85.50;;;;;;5082698;28;20086;-56
2021/08/16 01:52:59;;;;;;;9.02;5.35;;;20.50;85.00;;;;;;5081804;28;20036;-55
2021/08/16 01:55:24;;;;;;;10.75;5.00;;;20.50;85.10;;;;;;5065182;28;20495;-57
2021/08/16 01:57:51;;;;;;;7.32;4.63;;;20.40;86.40;;;;;;5081064;28;20098;-58
2021/08/16 02:00:16;;;;;;;8.15;4.72;;;20.40;86.50;;;;;;5082012;28;20097;-58
2021/08/16 02:02:42;;;;;;;9.93;4.85;;;20.30;86.40;;;;;;5080253;28;20609;-56
2021/08/16 02:05:08;;;;;;;9.13;5.03;;;20.40;86.50;;;;;;5082317;28;20020;-56
2021/08/16 02:07:34;;;;;;;6.95;4.93;;;20.40;86.70;;;;;;5081180;28;20392;-56
2021/08/16 02:10:00;;;;;;;15.38;10.10;;;20.30;86.40;;;;;;5081440;28;20028;-57
2021/08/16 02:12:25;;;;;;;18.00;11.13;;;20.30;85.80;;;;;;5079405;28;20395;-55
2021/08/16 02:14:51;;;;;;;12.93;7.82;;;20.30;85.90;;;;;;5082304;28;20043;-54
2021/08/16 02:17:16;;;;;;;6.97;5.28;;;20.30;86.20;;;;;;5081215;28;20491;-53
2021/08/16 02:19:44;;;;;;;6.00;4.20;;;20.30;86.80;;;;;;5085468;28;20431;-54
2021/08/16 02:22:09;;;;;;;8.18;4.80;;;20.20;86.50;;;;;;5080477;28;20044;-56
2021/08/16 02:24:35;;;;;;;6.45;4.47;;;20.20;86.80;;;;;;5080516;28;20033;-57
2021/08/16 02:27:01;;;;;;;8.90;5.20;;;20.10;86.90;;;;;;5082320;28;20040;-53
2021/08/16 02:29:26;;;;;;;7.72;4.70;;;20.10;86.90;;;;;;5079676;28;20538;-55
2021/08/16 02:31:52;;;;;;;7.38;4.80;;;20.00;87.10;;;;;;5081548;28;20043;-58
2021/08/16 02:34:17;;;;;;;9.75;4.45;;;20.00;87.20;;;;;;5081551;28;20044;-54
2021/08/16 02:36:43;;;;;;;11.15;4.43;;;20.00;86.60;;;;;;5062446;28;20037;-54
2021/08/16 02:39:10;;;;;;;6.80;4.60;;;19.90;87.50;;;;;;5079476;28;20068;-55
2021/08/16 02:41:36;;;;;;;7.85;4.80;;;19.90;87.40;;;;;;5081268;28;20549;-55
2021/08/16 02:44:02;;;;;;;6.20;4.60;;;19.90;87.10;;;;;;5083969;28;20029;-58
2021/08/16 02:46:28;;;;;;;6.47;4.57;;;19.90;87.70;;;;;;5064840;28;20040;-57
2021/08/16 02:48:53;;;;;;;10.57;4.75;;;20.00;87.80;;;;;;5086174;28;20131;-55
2021/08/16 02:51:20;;;;;;;5.45;4.00;;;20.00;87.80;;;;;;5084737;28;20047;-55
2021/08/16 02:53:46;;;;;;;7.97;4.47;;;20.10;87.30;;;;;;5085054;28;20024;-56
2021/08/16 02:56:11;;;;;;;12.15;4.50;;;20.10;87.50;;;;;;5086240;28;20635;-54
2021/08/16 02:58:37;;;;;;;8.75;4.43;;;20.00;87.40;;;;;;5083923;28;20040;-55
2021/08/16 03:01:02;;;;;;;6.95;4.40;;;20.10;87.60;;;;;;5083742;28;20036;-57
2021/08/16 03:03:28;;;;;;;7.25;4.40;;;20.10;88.10;;;;;;5084471;28;20028;-58
2021/08/16 03:05:54;;;;;;;9.43;4.72;;;20.00;86.10;;;;;;5085767;28;20039;-56
2021/08/16 03:08:19;;;;;;;5.18;3.90;;;20.00;85.10;;;;;;5083207;28;20390;-55
2021/08/16 03:10:45;;;;;;;8.90;4.38;;;20.00;84.90;;;;;;5093667;28;20053;-54
2021/08/16 03:13:10;;;;;;;6.25;3.88;;;20.00;85.50;;;;;;5094969;28;20024;-54
2021/08/16 03:15:36;;;;;;;7.60;4.15;;;19.90;84.30;;;;;;5080341;28;20476;-55
2021/08/16 03:18:02;;;;;;;8.15;4.53;;;19.80;84.30;;;;;;5074802;28;20024;-55
2021/08/16 03:20:27;;;;;;;12.02;4.78;;;19.70;84.50;;;;;;5074754;28;20031;-57
2021/08/16 03:22:53;;;;;;;11.55;4.65;;;19.70;84.40;;;;;;5074976;28;20035;-55
2021/08/16 03:25:19;;;;;;;11.07;4.35;;;19.70;84.60;;;;;;5078811;28;20093;-57
2021/08/16 03:27:45;;;;;;;6.63;4.20;;;19.60;85.60;;;;;;5094676;28;20040;-58
2021/08/16 03:30:12;;;;;;;5.93;3.90;;;19.60;85.50;;;;;;5095025;28;20036;-57
2021/08/16 03:32:38;;;;;;;7.50;4.38;;;19.60;85.50;;;;;;5094607;28;20391;-55
2021/08/16 03:35:04;;;;;;;6.03;4.10;;;19.60;85.90;;;;;;5094694;28;20121;-56
2021/08/16 03:37:35;;;;;;;4.70;3.65;;;19.60;86.00;;;;;;5094792;28;20070;-55
2021/08/16 03:40:02;;;;;;;6.22;4.05;;;19.50;85.80;;;;;;5094475;28;20498;-56
2021/08/16 03:42:27;;;;;;;9.43;3.78;;;19.40;86.00;;;;;;5094923;28;20526;-55
2021/08/16 03:44:53;;;;;;;7.75;3.95;;;19.40;86.20;;;;;;5095027;28;20063;-55
2021/08/16 03:47:18;;;;;;;8.82;3.80;;;19.30;85.80;;;;;;5093886;28;20036;-52
2021/08/16 03:49:44;;;;;;;8.23;4.35;;;19.20;86.30;;;;;;5094849;28;20108;-55
2021/08/16 03:52:10;;;;;;;5.40;4.05;;;19.00;86.40;;;;;;5076241;28;20031;-56
2021/08/16 03:54:36;;;;;;;11.18;4.53;;;18.80;87.20;;;;;;5094650;28;20035;-54
2021/08/16 03:57:01;;;;;;;6.68;4.25;;;18.90;87.20;;;;;;5093219;28;20556;-56
2021/08/16 03:59:27;;;;;;;9.07;4.40;;;18.80;87.90;;;;;;5094424;28;20063;-57
2021/08/16 04:01:52;;;;;;;9.13;4.30;;;18.70;87.90;;;;;;5095413;28;20110;-57
2021/08/16 04:04:18;;;;;;;8.32;4.30;;;18.70;88.40;;;;;;5094875;28;20060;-56
2021/08/16 04:06:44;;;;;;;6.50;4.10;;;18.90;87.80;;;;;;5093792;28;20036;-56
2021/08/16 04:09:11;;;;;;;7.82;4.88;;;18.90;87.60;;;;;;5072814;28;20047;-57
2021/08/16 04:11:37;;;;;;;7.22;3.85;;;19.00;87.40;;;;;;5081871;28;20541;-57
2021/08/16 04:14:03;;;;;;;7.80;4.32;;;19.00;87.30;;;;;;5075833;28;20551;-55
2021/08/16 04:16:29;;;;;;;8.10;4.55;;;19.00;87.10;;;;;;5093770;28;20120;-54
2021/08/16 04:18:54;;;;;;;8.55;5.15;;;19.20;86.70;;;;;;5092266;28;20069;-56
2021/08/16 04:21:20;;;;;;;11.32;4.47;;;19.30;86.70;;;;;;5076192;28;20450;-58
2021/08/16 04:23:45;;;;;;;9.20;5.28;;;19.30;86.00;;;;;;5083536;28;20040;-54
2021/08/16 04:26:11;;;;;;;8.77;4.20;;;19.40;86.20;;;;;;5082209;28;20061;-57
2021/08/16 04:28:36;;;;;;;8.85;4.38;;;19.40;86.30;;;;;;5084076;28;20032;-56
2021/08/16 04:31:02;;;;;;;10.63;4.90;;;19.30;84.80;;;;;;5082448;28;20032;-56
2021/08/16 04:33:28;;;;;;;11.05;4.75;;;19.30;84.70;;;;;;5083942;28;20032;-54
2021/08/16 04:35:54;;;;;;;6.32;5.35;;;19.30;84.60;;;;;;5081492;28;20033;-57
2021/08/16 04:38:21;;;;;;;7.68;4.80;;;19.30;84.30;;;;;;5087652;28;20036;-54
2021/08/16 04:40:47;;;;;;;10.60;4.38;;;19.40;84.30;;;;;;5093314;28;20028;-56
2021/08/16 04:43:14;;;;;;;7.00;4.18;;;19.50;83.90;;;;;;5093482;28;20085;-57
2021/08/16 04:45:39;;;;;;;7.45;4.20;;;19.60;83.50;;;;;;5093183;28;20456;-57
2021/08/16 04:48:05;;;;;;;7.53;5.35;;;19.60;83.20;;;;;;5084676;28;20071;-57
2021/08/16 04:50:31;;;;;;;8.43;4.75;;;19.70;83.00;;;;;;5058936;28;20119;-56
2021/08/16 04:52:56;;;;;;;5.57;4.20;;;19.70;83.10;;;;;;5085733;28;20127;-53
2021/08/16 04:55:22;;;;;;;8.70;4.50;;;19.70;83.30;;;;;;5093418;28;20403;-54
2021/08/16 04:57:48;;;;;;;8.65;4.15;;;19.80;83.10;;;;;;5093206;28;20062;-58
2021/08/16 05:00:14;;;;;;;6.03;4.13;;;19.80;83.20;;;;;;5092899;28;20077;-56
2021/08/16 05:02:40;;;;;;;7.97;4.13;;;19.80;83.10;;;;;;5093887;28;20035;-57
2021/08/16 05:05:12;;;;;;;8.40;4.50;;;19.80;83.10;;;;;;5084628;28;20402;-55
2021/08/16 05:07:38;;;;;;;7.10;3.78;;;19.80;82.90;;;;;;5072215;28;20032;-56
2021/08/16 05:10:08;;;;;;;6.78;4.28;;;19.90;83.10;;;;;;5072287;28;20388;-52
2021/08/16 05:12:36;;;;;;;10.75;5.30;;;20.00;82.90;;;;;;5072168;28;20581;-60
2021/08/16 05:15:02;;;;;;;7.32;4.78;;;20.20;82.40;;;;;;5082862;28;20487;-57
2021/08/16 05:17:28;;;;;;;8.45;4.53;;;20.30;81.60;;;;;;5093004;28;20032;-57
2021/08/16 05:19:54;;;;;;;5.75;4.10;;;20.40;81.40;;;;;;5084902;28;20468;-58
2021/08/16 05:22:19;;;;;;;6.32;4.20;;;20.40;81.80;;;;;;5073409;28;20025;-57
2021/08/16 05:24:45;;;;;;;6.78;4.35;;;20.50;81.00;;;;;;5072742;28;20392;-55
2021/08/16 05:27:10;;;;;;;7.45;4.75;;;20.40;81.60;;;;;;5071323;28;20041;-58
2021/08/16 05:29:36;;;;;;;7.82;4.30;;;20.50;81.00;;;;;;5072741;28;20036;-54
2021/08/16 05:32:02;;;;;;;6.68;4.10;;;20.50;80.60;;;;;;5072428;28;20029;-55
2021/08/16 05:34:27;;;;;;;7.50;4.75;;;20.50;80.90;;;;;;5072429;28;20051;-55
2021/08/16 05:36:53;;;;;;;8.15;4.85;;;20.50;81.30;;;;;;5072138;28;20442;-55
2021/08/16 05:39:18;;;;;;;12.32;5.75;;;20.40;81.90;;;;;;5072309;28;20068;-55
2021/08/16 05:41:44;;;;;;;9.45;5.43;;;20.40;82.40;;;;;;5072611;28;20480;-58
2021/08/16 05:44:09;;;;;;;8.48;5.30;;;20.30;82.80;;;;;;5083777;28;20160;-54
2021/08/16 05:46:35;;;;;;;11.88;5.40;;;20.20;83.50;;;;;;5083439;28;20094;-56
2021/08/16 05:49:00;;;;;;;8.20;5.10;;;20.20;83.70;;;;;;5071990;28;20036;-55
2021/08/16 05:51:26;;;;;;;15.88;5.85;;;20.10;84.20;;;;;;5072192;28;20028;-57
2021/08/16 05:53:52;;;;;;;8.93;4.53;;;20.00;85.20;;;;;;5054099;28;20040;-57
2021/08/16 05:56:17;;;;;;;10.93;5.03;;;20.10;85.60;;;;;;5072100;28;20503;-56
2021/08/16 05:58:44;;;;;;;11.57;5.72;;;19.90;86.20;;;;;;5054497;28;20075;-56
2021/08/16 06:01:09;;;;;;;11.20;5.63;;;19.90;86.30;;;;;;5072269;28;20036;-58
2021/08/16 06:03:35;;;;;;;9.10;5.20;;;19.90;86.60;;;;;;5072066;28;20040;-58
2021/08/16 06:06:01;;;;;;;9.00;5.22;;;19.90;87.00;;;;;;5053832;28;20044;-57
2021/08/16 06:08:26;;;;;;;12.50;5.40;;;20.00;86.90;;;;;;5072009;28;20424;-55
2021/08/16 06:10:52;;;;;;;9.55;5.35;;;20.00;87.20;;;;;;5071976;28;20033;-52
2021/08/16 06:13:17;;;;;;;11.80;5.80;;;20.00;87.60;;;;;;5071959;28;20039;-56
2021/08/16 06:15:43;;;;;;;8.93;6.07;;;20.10;87.20;;;;;;5087795;28;20038;-56
2021/08/16 06:18:08;;;;;;;10.90;6.97;;;20.20;87.40;;;;;;5092505;28;20040;-57
2021/08/16 06:20:34;;;;;;;11.50;6.72;;;20.20;87.70;;;;;;5077302;28;20035;-55
2021/08/16 06:23:00;;;;;;;10.15;6.60;;;20.40;87.50;;;;;;5076180;28;20388;-55
2021/08/16 06:25:25;;;;;;;8.10;6.70;;;20.40;87.80;;;;;;5075855;28;20021;-57
2021/08/16 06:27:51;;;;;;;12.88;6.63;;;20.50;87.60;;;;;;5075679;28;20472;-55
2021/08/16 06:30:16;;;;;;;12.45;6.70;;;20.60;87.50;;;;;;5059149;28;20399;-56
2021/08/16 06:32:42;;;;;;;10.38;7.55;;;20.60;87.50;;;;;;5089094;28;20039;-52
2021/08/16 06:35:09;;;;;;;12.90;8.32;;;20.70;87.60;;;;;;5096377;28;20040;-58
2021/08/16 06:37:34;;;;;;;11.75;8.07;;;20.80;87.20;;;;;;5096829;28;20047;-56
2021/08/16 06:40:00;;;;;;;15.18;9.73;;;20.90;87.30;;;;;;5095852;28;20032;-55
2021/08/16 06:42:26;;;;;;;13.10;9.85;;;20.70;88.10;;;;;;5095710;28;20391;-56
2021/08/16 06:44:51;;;;;;;14.77;11.00;;;20.70;88.60;;;;;;5096022;28;20403;-56
2021/08/16 06:47:18;;;;;;;13.88;9.60;;;20.70;88.80;;;;;;5095321;28;20480;-58
2021/08/16 06:49:44;;;;;;;15.60;9.38;;;20.50;89.50;;;;;;5095996;28;20032;-54
2021/08/16 06:52:10;;;;;;;13.73;9.25;;;20.60;89.30;;;;;;5095595;28;20028;-58
2021/08/16 06:54:35;;;;;;;12.75;8.73;;;20.70;89.00;;;;;;5097040;28;20043;-57
2021/08/16 06:57:02;;;;;;;16.23;9.50;;;20.80;89.20;;;;;;5095663;28;20093;-56
2021/08/16 06:59:28;;;;;;;14.82;9.35;;;20.60;89.80;;;;;;5095834;28;20537;-59
2021/08/16 07:01:54;;;;;;;11.00;8.25;;;20.40;90.00;;;;;;5095605;28;20024;-57
2021/08/16 07:04:19;;;;;;;10.20;7.95;;;20.60;90.00;;;;;;5077431;28;20058;-56
2021/08/16 07:06:46;;;;;;;13.02;8.65;;;20.70;89.60;;;;;;5094723;28;20464;-55
2021/08/16 07:09:12;;;;;;;16.77;8.55;;;20.80;89.30;;;;;;5077978;28;20115;-58
2021/08/16 07:11:38;;;;;;;15.52;8.15;;;20.60;89.90;;;;;;5095895;28;20055;-58
2021/08/16 07:14:03;;;;;;;12.30;7.63;;;20.70;89.30;;;;;;5095532;28;20036;-58
2021/08/16 07:16:29;;;;;;;14.05;8.10;;;20.80;89.30;;;;;;5095544;28;20036;-58
2021/08/16 07:18:54;;;;;;;12.57;7.35;;;20.90;89.30;;;;;;5094350;28;20136;-56
2021/08/16 07:21:20;;;;;;;9.88;7.55;;;21.00;89.00;;;;;;5075069;28;20063;-56
2021/08/16 07:23:45;;;;;;;14.60;8.10;;;21.10;87.80;;;;;;5075190;28;20115;-57
2021/08/16 07:26:11;;;;;;;9.73;7.70;;;21.10;88.20;;;;;;5074869;28;20059;-59
2021/08/16 07:28:37;;;;;;;16.05;8.10;;;21.40;87.90;;;;;;5075048;28;20509;-58
2021/08/16 07:31:04;;;;;;;11.02;7.20;;;21.50;87.60;;;;;;5074768;28;20052;-57
2021/08/16 07:33:30;;;;;;;12.07;7.38;;;21.60;87.50;;;;;;5074167;28;20032;-58
2021/08/16 07:35:56;;;;;;;11.25;6.50;;;21.80;86.10;;;;;;5073682;28;20097;-58
2021/08/16 07:38:21;;;;;;;10.40;6.65;;;22.00;85.60;;;;;;5073786;28;20033;-55
2021/08/16 07:40:48;;;;;;;10.65;6.32;;;21.90;85.40;;;;;;5073775;28;20039;-57
2021/08/16 07:43:17;;;;;;;9.75;6.18;;;22.10;85.50;;;;;;5059565;28;20028;-56
2021/08/16 07:45:42;;;;;;;11.27;5.65;;;22.20;82.20;;;;;;5094165;28;20497;-57
2021/08/16 07:48:08;;;;;;;13.43;6.88;;;22.20;81.60;;;;;;5075881;28;20516;-57
2021/08/16 07:50:34;;;;;;;8.63;5.72;;;22.20;80.00;;;;;;5094284;28;20028;-62
2021/08/16 07:52:59;;;;;;;13.70;6.70;;;22.10;80.80;;;;;;5094879;28;20040;-59
2021/08/16 07:55:25;;;;;;;12.85;6.65;;;22.10;82.90;;;;;;5095552;28;20096;-57
2021/08/16 07:57:51;;;;;;;8.20;5.68;;;22.30;83.00;;;;;;5077452;28;20059;-54
2021/08/16 08:00:17;;;;;;;9.70;5.95;;;22.10;79.60;;;;;;5093970;28;20028;-58
2021/08/16 08:02:48;;;;;;;21.40;6.32;;;22.10;79.50;;;;;;5094035;28;20436;-56
2021/08/16 08:05:15;;;;;;;8.43;5.78;;;22.00;79.10;;;;;;5094195;28;20115;-58
2021/08/16 08:07:41;;;;;;;9.35;6.47;;;21.90;78.20;;;;;;5094116;28;20039;-57
2021/08/16 08:10:15;;;;;;;11.93;6.38;;;21.90;79.30;;;;;;5076529;28;20024;-57
2021/08/16 08:12:42;;;;;;;10.65;6.28;;;22.00;78.90;;;;;;5094638;28;20024;-61
2021/08/16 08:15:08;;;;;;;10.82;5.78;;;21.80;79.90;;;;;;5094815;28;20044;-57
2021/08/16 08:17:34;;;;;;;11.10;6.13;;;21.80;78.30;;;;;;5094543;28;20667;-57
2021/08/16 08:20:00;;;;;;;10.20;6.35;;;21.80;78.50;;;;;;5094392;28;20039;-56
2021/08/16 08:22:27;;;;;;;12.52;6.50;;;21.80;78.90;;;;;;5094683;28;20093;-58
2021/08/16 08:24:53;;;;;;;12.88;6.07;;;21.90;78.20;;;;;;5094696;28;20031;-57
2021/08/16 08:27:19;;;;;;;11.52;6.43;;;22.00;77.70;;;;;;5093927;28;20035;-57
2021/08/16 08:29:45;;;;;;;54.25;9.00;;;22.10;78.30;;;;;;5094886;28;20077;-55
2021/08/16 08:32:11;;;;;;;7.25;5.63;;;22.30;78.70;;;;;;5094164;28;20020;-57
2021/08/16 08:34:37;;;;;;;10.63;5.95;;;22.40;77.70;;;;;;5093974;28;20055;-56
2021/08/16 08:37:04;;;;;;;8.98;5.55;;;22.40;76.00;;;;;;5093735;28;20078;-57
2021/08/16 08:39:29;;;;;;;9.30;5.20;;;22.40;75.30;;;;;;5094237;28;20032;-55
2021/08/16 08:41:58;;;;;;;11.65;5.47;;;22.50;73.90;;;;;;5094291;28;20035;-57
2021/08/16 08:44:24;;;;;;;8.32;4.63;;;22.40;70.30;;;;;;5093048;28;20028;-54
2021/08/16 08:46:51;;;;;;;12.20;5.43;;;22.40;70.30;;;;;;5093103;28;20073;-57
2021/08/16 08:49:19;;;;;;;12.77;5.20;;;22.50;70.70;;;;;;5093197;28;20062;-58
2021/08/16 08:51:44;;;;;;;12.95;5.55;;;22.50;70.80;;;;;;5093805;28;20058;-56
2021/08/16 08:54:10;;;;;;;9.20;5.63;;;22.40;70.80;;;;;;5094258;28;20020;-56
2021/08/16 08:56:36;;;;;;;8.80;5.60;;;22.60;71.30;;;;;;5093676;28;20391;-56
2021/08/16 08:59:02;;;;;;;10.38;5.20;;;22.50;71.40;;;;;;5093730;28;20105;-56
2021/08/16 09:01:28;;;;;;;11.35;5.28;;;22.50;71.80;;;;;;5093716;28;20119;-55
2021/08/16 09:03:55;;;;;;;9.70;5.32;;;22.50;71.30;;;;;;5093224;28;20067;-55
2021/08/16 09:06:41;;;;;;;8.13;4.75;;;22.50;71.90;;;;;;5093186;28;20038;-56
2021/08/16 09:09:07;;;;;;;13.25;5.10;;;22.50;72.20;;;;;;5093372;28;20072;-56
2021/08/16 09:11:33;;;;;;;7.22;4.13;;;22.50;70.30;;;;;;5074781;28;20028;-57
2021/08/16 09:14:00;;;;;;;11.07;4.47;;;22.40;71.10;;;;;;5074919;28;20505;-57
2021/08/16 09:16:29;;;;;;;13.55;4.05;;;22.50;71.10;;;;;;5092671;28;20085;-58
2021/08/16 09:18:56;;;;;;;9.85;4.55;;;22.40;70.50;;;;;;5091041;28;20062;-57
2021/08/16 09:21:32;;;;;;;7.68;4.13;;;22.40;70.10;;;;;;5072119;28;20028;-56
2021/08/16 09:24:00;;;;;;;7.65;3.65;;;22.30;70.70;;;;;;5072439;28;20052;-56
2021/08/16 09:26:28;;;;;;;6.72;3.78;;;22.40;69.60;;;;;;5072043;28;20123;-56
2021/08/16 09:28:54;;;;;;;6.90;3.95;;;22.30;69.50;;;;;;5072586;28;20079;-57
2021/08/16 09:31:23;;;;;;;7.10;4.10;;;22.40;69.20;;;;;;5071852;28;20052;-58
2021/08/16 09:34:02;;;;;;;9.93;3.97;;;22.50;69.10;;;;;;5054707;28;20029;-57
2021/08/16 09:36:38;;;;;;;7.22;3.55;;;22.40;70.20;;;;;;5071787;28;20040;-56
2021/08/16 09:39:18;;;;;;;12.30;5.03;;;22.30;71.00;;;;;;5072571;28;20020;-54
2021/08/16 09:41:43;;;;;;;6.65;3.92;;;22.50;70.80;;;;;;5054275;28;20118;-57
2021/08/16 09:44:11;;;;;;;8.23;4.35;;;22.60;70.90;;;;;;5083262;28;20487;-57
2021/08/16 09:46:37;;;;;;;7.28;4.32;;;22.80;71.20;;;;;;5092054;28;20131;-54
2021/08/16 09:49:04;;;;;;;10.75;5.10;;;22.90;70.40;;;;;;5092144;28;20103;-53
2021/08/16 09:51:31;;;;;;;7.88;4.80;;;22.80;70.40;;;;;;5092087;28;20020;-56
2021/08/16 09:53:58;;;;;;;11.30;4.82;;;22.80;72.00;;;;;;5092392;28;20122;-56
2021/08/16 09:56:24;;;;;;;8.82;5.10;;;22.90;70.80;;;;;;5090912;28;20031;-57
2021/08/16 09:58:50;;;;;;;9.35;4.63;;;22.90;69.80;;;;;;5092146;28;20065;-56
2021/08/16 10:01:16;;;;;;;8.55;4.70;;;22.90;69.60;;;;;;5091825;28;20047;-58
2021/08/16 10:03:42;;;;;;;11.57;5.18;;;23.00;69.70;;;;;;5091992;28;20039;-57
2021/08/16 10:06:09;;;;;;;11.32;4.97;;;23.00;69.90;;;;;;5092258;28;20036;-58
2021/08/16 10:08:39;;;;;;;8.32;4.72;;;23.00;69.90;;;;;;5093099;28;20073;-57
2021/08/16 10:11:06;;;;;;;14.60;5.82;;;22.90;70.50;;;;;;5091834;28;20028;-54
2021/08/16 10:13:35;;;;;;;12.63;5.50;;;22.70;70.10;;;;;;5092596;28;20078;-56
2021/08/16 10:16:05;;;;;;;7.90;4.80;;;22.80;70.50;;;;;;5073732;28;20373;-58
2021/08/16 10:18:34;;;;;;;10.23;4.57;;;22.90;69.10;;;;;;5071503;28;20028;-57
2021/08/16 10:21:01;;;;;;;7.88;4.32;;;23.00;69.90;;;;;;5072325;28;20058;-57
2021/08/16 10:23:27;;;;;;;7.93;4.50;;;22.70;69.90;;;;;;5092838;28;20542;-54
2021/08/16 10:25:56;;;;;;;10.82;4.70;;;22.30;70.30;;;;;;5091970;28;20103;-55
2021/08/16 10:28:23;;;;;;;11.40;4.82;;;22.00;71.50;;;;;;5091408;28;20109;-55
2021/08/16 10:30:48;;;;;;;8.52;4.57;;;22.10;70.80;;;;;;5092683;28;20055;-56
2021/08/16 10:33:14;;;;;;;10.93;5.07;;;22.30;71.10;;;;;;5091798;28;20051;-56
2021/08/16 10:35:40;;;;;;;9.57;4.75;;;22.40;71.30;;;;;;5091909;28;20035;-55
2021/08/16 10:38:11;;;;;;;10.82;5.22;;;22.80;69.30;;;;;;5092012;28;20050;-55
2021/08/16 10:40:42;;;;;;;8.23;4.25;;;22.90;69.10;;;;;;5091536;28;20564;-54
2021/08/16 10:43:10;;;;;;;13.02;4.43;;;22.80;68.60;;;;;;5092441;28;20040;-58
2021/08/16 10:45:51;;;;;;;11.27;4.78;;;22.80;69.10;;;;;;5091934;28;20036;-57
2021/08/16 10:48:23;;;;;;;10.43;4.57;;;22.70;68.20;;;;;;5091608;28;20036;-56
2021/08/16 10:51:01;;;;;;;10.20;4.15;;;22.90;68.60;;;;;;5092160;28;20096;-54
2021/08/16 10:53:26;;;;;;;12.35;4.55;;;22.90;68.40;;;;;;5091691;28;20111;-58
2021/08/16 10:55:53;;;;;;;12.30;4.35;;;22.80;67.90;;;;;;5091825;28;20170;-57
2021/08/16 10:58:20;;;;;;;25.48;5.88;;;22.80;67.40;;;;;;5074459;28;20028;-56
2021/08/16 11:00:45;;;;;;;11.30;4.25;;;23.00;67.00;;;;;;5073681;28;20043;-55
2021/08/16 11:03:11;;;;;;;6.03;3.80;;;23.10;67.30;;;;;;5091680;28;20392;-53
2021/08/16 11:05:39;;;;;;;10.18;5.05;;;22.90;66.30;;;;;;5091602;28;20036;-57
2021/08/16 11:08:06;;;;;;;7.80;4.28;;;22.60;67.00;;;;;;5093836;28;20039;-58
2021/08/16 11:10:47;;;;;;;7.47;4.18;;;22.60;67.70;;;;;;5095329;28;20487;-55
2021/08/16 11:13:21;;;;;;;7.82;3.90;;;22.60;67.70;;;;;;5095023;28;20436;-55
2021/08/16 11:15:49;;;;;;;10.98;3.90;;;22.80;67.50;;;;;;5094652;28;20387;-57
2021/08/16 11:18:20;;;;;;;5.45;3.50;;;22.70;67.90;;;;;;5076892;28;20048;-57
2021/08/16 11:20:56;;;;;;;8.07;3.63;;;22.70;67.90;;;;;;5061383;28;20128;-54
2021/08/16 11:23:22;;;;;;;7.68;3.60;;;22.60;67.00;;;;;;5076029;28;20032;-53
2021/08/16 11:25:49;;;;;;;7.78;3.95;;;22.70;65.30;;;;;;5074968;28;20142;-56
2021/08/16 11:28:22;;;;;;;10.27;3.90;;;22.70;65.70;;;;;;5074353;28;20039;-56
2021/08/16 11:30:49;;;;;;;5.82;3.35;;;22.80;65.50;;;;;;5074201;28;20029;-57
2021/08/16 11:33:25;;;;;;;9.68;4.13;;;23.10;66.10;;;;;;5074935;28;20097;-57
2021/08/16 11:36:03;;;;;;;10.23;4.20;;;23.20;63.70;;;;;;5074581;28;20029;-55
2021/08/16 11:38:28;;;;;;;6.47;3.10;;;23.00;64.40;;;;;;5056084;28;20032;-54
2021/08/16 11:41:03;;;;;;;10.93;4.13;;;22.90;64.80;;;;;;5074464;28;20036;-56
2021/08/16 11:43:28;;;;;;;;;;;22.70;65.70;;;;;;5079895;28;20036;-58
2021/08/16 11:45:54;;;;;;;9.82;4.15;;;22.70;66.20;;;;;;5094865;28;20330;-57
2021/08/16 11:48:25;;;;;;;6.93;3.60;;;22.60;66.30;;;;;;5094649;28;20032;-56
2021/08/16 11:50:57;;;;;;;7.97;4.07;;;22.70;66.40;;;;;;5094659;28;20047;-63
2021/08/16 11:53:23;;;;;;;6.93;3.63;;;22.50;66.50;;;;;;5094515;28;20028;-55
2021/08/16 11:55:48;;;;;;;8.00;3.60;;;22.60;66.70;;;;;;5094377;28;20511;-58
2021/08/16 11:58:14;;;;;;;7.53;3.72;;;22.50;66.40;;;;;;5094420;28;20036;-57
2021/08/16 12:00:41;;;;;;;8.65;4.07;;;22.60;66.40;;;;;;5060038;28;20123;-54
2021/08/16 12:03:07;;;;;;;9.43;4.07;;;22.50;66.30;;;;;;5093972;28;20380;-56
2021/08/16 12:05:36;;;;;;;4.95;3.22;;;22.50;66.90;;;;;;5093775;28;20067;-56
2021/08/16 12:08:03;;;;;;;5.97;3.17;;;22.50;67.60;;;;;;5094176;28;20036;-57
2021/08/16 12:10:29;;;;;;;9.68;3.53;;;22.70;66.70;;;;;;5093418;28;20039;-61
2021/08/16 12:12:59;;;;;;;11.60;4.00;;;22.80;66.90;;;;;;5093735;28;20093;-53
2021/08/16 12:15:25;;;;;;;8.50;3.70;;;22.90;67.10;;;;;;5093295;28;20028;-58
2021/08/16 12:18:03;;;;;;;5.72;3.50;;;23.20;66.50;;;;;;5092811;28;20085;-58
2021/08/16 12:20:38;;;;;;;6.78;3.67;;;23.40;66.90;;;;;;5078870;28;20063;-56
2021/08/16 12:23:03;;;;;;;8.82;4.13;;;23.40;64.70;;;;;;5073301;28;20036;-58
2021/08/16 12:25:29;;;;;;;6.75;3.50;;;23.50;65.10;;;;;;5073750;28;20040;-57
2021/08/16 12:28:00;;;;;;;9.15;3.65;;;23.60;65.90;;;;;;5073317;28;20067;-58
2021/08/16 12:30:32;;;;;;;6.65;3.70;;;23.60;64.50;;;;;;5073541;28;20063;-57
2021/08/16 12:33:12;;;;;;;10.85;3.72;;;23.30;64.90;;;;;;5073436;28;20048;-61
2021/08/16 12:35:39;;;;;;;6.90;3.55;;;23.00;66.80;;;;;;5055227;28;20142;-58
2021/08/16 12:38:06;;;;;;;8.10;4.07;;;23.10;66.50;;;;;;5073608;28;20123;-58
2021/08/16 12:40:33;;;;;;;11.93;4.03;;;23.20;66.30;;;;;;5073028;28;20034;-56
2021/08/16 12:43:04;;;;;;;10.88;3.90;;;23.10;67.00;;;;;;5074589;28;20028;-57